sensor_id;sensor_type;location;lat;lon;timestamp;P1;durP1;ratioP1;P2;durP2;ratioP2
3647;SDS011;1840;48.892;15.312;2023-10-09T00:00:13;13.83;;;8.27;;
3647;SDS011;1840;48.892;15.312;2023-10-09T00:02:59;8.77;;;5.90;;
3647;SDS011;1840;48.892;15.312;2023-10-09T00:05:30;10.67;;;6.73;;
3647;SDS011;1840;48.892;15.312;2023-10-09T00:08:12;11.23;;;5.97;;
3647;SDS011;1840;48.892;15.312;2023-10-09T00:10:47;13.90;;;6.47;;
3647;SDS011;1840;48.892;15.312;2023-10-09T00:13:20;10.43;;;6.13;;
3647;SDS011;1840;48.892;15.312;2023-10-09T00:15:53;11.70;;;6.87;;
3647;SDS011;1840;48.892;15.312;2023-10-09T00:18:26;8.60;;;5.37;;
3647;SDS011;1840;48.892;15.312;2023-10-09T00:20:56;14.67;;;6.47;;
3647;SDS011;1840;48.892;15.312;2023-10-09T00:23:27;11.10;;;6.00;;
3647;SDS011;1840;48.892;15.312;2023-10-09T00:26:00;8.40;;;5.40;;
3647;SDS011;1840;48.892;15.312;2023-10-09T00:28:37;9.73;;;5.47;;
3647;SDS011;1840;48.892;15.312;2023-10-09T00:31:09;9.70;;;5.53;;
3647;SDS011;1840;48.892;15.312;2023-10-09T00:33:41;8.10;;;5.43;;
3647;SDS011;1840;48.892;15.312;2023-10-09T00:36:10;9.63;;;6.27;;
3647;SDS011;1840;48.892;15.312;2023-10-09T00:38:44;7.80;;;5.40;;
3647;SDS011;1840;48.892;15.312;2023-10-09T00:41:16;9.40;;;5.70;;
3647;SDS011;1840;48.892;15.312;2023-10-09T00:43:51;7.90;;;5.30;;
3647;SDS011;1840;48.892;15.312;2023-10-09T00:46:20;9.67;;;5.67;;
3647;SDS011;1840;48.892;15.312;2023-10-09T00:48:54;13.13;;;6.10;;
3647;SDS011;1840;48.892;15.312;2023-10-09T00:51:24;10.43;;;5.73;;
3647;SDS011;1840;48.892;15.312;2023-10-09T00:53:54;7.80;;;5.13;;
3647;SDS011;1840;48.892;15.312;2023-10-09T00:56:27;7.03;;;5.13;;
3647;SDS011;1840;48.892;15.312;2023-10-09T00:59:05;8.70;;;5.30;;
3647;SDS011;1840;48.892;15.312;2023-10-09T01:01:36;8.03;;;5.90;;
3647;SDS011;1840;48.892;15.312;2023-10-09T01:04:06;15.27;;;6.70;;
3647;SDS011;1840;48.892;15.312;2023-10-09T01:06:37;11.83;;;5.30;;
3647;SDS011;1840;48.892;15.312;2023-10-09T01:09:10;16.50;;;5.90;;
3647;SDS011;1840;48.892;15.312;2023-10-09T01:11:41;8.83;;;6.03;;
3647;SDS011;1840;48.892;15.312;2023-10-09T01:14:15;8.20;;;5.10;;
3647;SDS011;1840;48.892;15.312;2023-10-09T01:16:47;16.33;;;5.30;;
3647;SDS011;1840;48.892;15.312;2023-10-09T01:19:15;14.40;;;5.50;;
3647;SDS011;1840;48.892;15.312;2023-10-09T01:21:51;8.00;;;5.30;;
3647;SDS011;1840;48.892;15.312;2023-10-09T01:24:21;9.00;;;5.00;;
3647;SDS011;1840;48.892;15.312;2023-10-09T01:26:52;7.03;;;4.70;;
3647;SDS011;1840;48.892;15.312;2023-10-09T01:29:23;8.47;;;5.37;;
3647;SDS011;1840;48.892;15.312;2023-10-09T01:31:54;9.63;;;5.70;;
3647;SDS011;1840;48.892;15.312;2023-10-09T01:34:27;12.83;;;5.73;;
3647;SDS011;1840;48.892;15.312;2023-10-09T01:37:06;15.77;;;6.73;;
3647;SDS011;1840;48.892;15.312;2023-10-09T01:39:40;7.90;;;5.60;;
3647;SDS011;1840;48.892;15.312;2023-10-09T01:42:09;12.83;;;6.03;;
3647;SDS011;1840;48.892;15.312;2023-10-09T01:44:37;7.10;;;4.83;;
3647;SDS011;1840;48.892;15.312;2023-10-09T01:47:10;7.37;;;4.80;;
3647;SDS011;1840;48.892;15.312;2023-10-09T01:49:41;9.00;;;5.00;;
3647;SDS011;1840;48.892;15.312;2023-10-09T01:52:10;11.73;;;5.10;;
3647;SDS011;1840;48.892;15.312;2023-10-09T01:54:44;30.17;;;7.70;;
3647;SDS011;1840;48.892;15.312;2023-10-09T01:57:16;12.43;;;5.00;;
3647;SDS011;1840;48.892;15.312;2023-10-09T01:59:49;8.90;;;5.13;;
3647;SDS011;1840;48.892;15.312;2023-10-09T02:02:20;13.83;;;6.67;;
3647;SDS011;1840;48.892;15.312;2023-10-09T02:05:00;12.33;;;6.00;;
3647;SDS011;1840;48.892;15.312;2023-10-09T02:07:49;10.43;;;5.20;;
3647;SDS011;1840;48.892;15.312;2023-10-09T02:10:20;8.17;;;5.17;;
3647;SDS011;1840;48.892;15.312;2023-10-09T02:12:59;8.67;;;4.93;;
3647;SDS011;1840;48.892;15.312;2023-10-09T02:15:33;6.77;;;4.60;;
3647;SDS011;1840;48.892;15.312;2023-10-09T02:18:18;11.80;;;4.70;;
3647;SDS011;1840;48.892;15.312;2023-10-09T02:21:05;6.63;;;3.70;;
3647;SDS011;1840;48.892;15.312;2023-10-09T02:23:40;5.67;;;4.17;;
3647;SDS011;1840;48.892;15.312;2023-10-09T02:26:15;7.63;;;4.50;;
3647;SDS011;1840;48.892;15.312;2023-10-09T02:28:46;9.83;;;5.10;;
3647;SDS011;1840;48.892;15.312;2023-10-09T02:31:25;10.13;;;4.80;;
3647;SDS011;1840;48.892;15.312;2023-10-09T02:34:02;5.13;;;3.63;;
3647;SDS011;1840;48.892;15.312;2023-10-09T02:36:32;10.30;;;4.60;;
3647;SDS011;1840;48.892;15.312;2023-10-09T02:39:02;8.00;;;4.70;;
3647;SDS011;1840;48.892;15.312;2023-10-09T02:41:33;9.47;;;4.60;;
3647;SDS011;1840;48.892;15.312;2023-10-09T02:44:11;7.03;;;4.57;;
3647;SDS011;1840;48.892;15.312;2023-10-09T02:46:40;8.43;;;4.87;;
3647;SDS011;1840;48.892;15.312;2023-10-09T02:49:11;13.83;;;4.17;;
3647;SDS011;1840;48.892;15.312;2023-10-09T02:51:42;5.80;;;3.63;;
3647;SDS011;1840;48.892;15.312;2023-10-09T02:54:14;9.07;;;4.43;;
3647;SDS011;1840;48.892;15.312;2023-10-09T02:56:55;13.43;;;4.70;;
3647;SDS011;1840;48.892;15.312;2023-10-09T02:59:32;11.30;;;4.53;;
3647;SDS011;1840;48.892;15.312;2023-10-09T03:02:01;7.63;;;4.13;;
3647;SDS011;1840;48.892;15.312;2023-10-09T03:04:29;8.33;;;4.20;;
3647;SDS011;1840;48.892;15.312;2023-10-09T03:06:58;8.53;;;4.10;;
3647;SDS011;1840;48.892;15.312;2023-10-09T03:09:26;11.30;;;4.47;;
3647;SDS011;1840;48.892;15.312;2023-10-09T03:11:57;5.23;;;3.60;;
3647;SDS011;1840;48.892;15.312;2023-10-09T03:14:30;10.70;;;3.30;;
3647;SDS011;1840;48.892;15.312;2023-10-09T03:17:01;10.33;;;4.00;;
3647;SDS011;1840;48.892;15.312;2023-10-09T03:19:31;8.60;;;3.50;;
3647;SDS011;1840;48.892;15.312;2023-10-09T03:22:04;6.87;;;3.90;;
3647;SDS011;1840;48.892;15.312;2023-10-09T03:24:35;6.50;;;3.53;;
3647;SDS011;1840;48.892;15.312;2023-10-09T03:27:05;10.30;;;4.57;;
3647;SDS011;1840;48.892;15.312;2023-10-09T03:29:33;7.70;;;4.53;;
3647;SDS011;1840;48.892;15.312;2023-10-09T03:32:01;6.50;;;3.90;;
3647;SDS011;1840;48.892;15.312;2023-10-09T03:34:30;10.03;;;5.70;;
3647;SDS011;1840;48.892;15.312;2023-10-09T03:36:58;9.77;;;5.40;;
3647;SDS011;1840;48.892;15.312;2023-10-09T03:39:37;8.77;;;4.30;;
3647;SDS011;1840;48.892;15.312;2023-10-09T03:42:08;10.60;;;4.57;;
3647;SDS011;1840;48.892;15.312;2023-10-09T03:44:45;8.87;;;4.37;;
3647;SDS011;1840;48.892;15.312;2023-10-09T03:47:19;12.10;;;5.30;;
3647;SDS011;1840;48.892;15.312;2023-10-09T03:49:49;6.23;;;4.10;;
3647;SDS011;1840;48.892;15.312;2023-10-09T03:52:19;15.07;;;5.80;;
3647;SDS011;1840;48.892;15.312;2023-10-09T03:54:52;7.97;;;3.93;;
3647;SDS011;1840;48.892;15.312;2023-10-09T03:57:22;7.40;;;4.57;;
3647;SDS011;1840;48.892;15.312;2023-10-09T03:59:51;6.93;;;4.33;;
3647;SDS011;1840;48.892;15.312;2023-10-09T04:02:21;9.87;;;4.13;;
3647;SDS011;1840;48.892;15.312;2023-10-09T04:04:49;5.70;;;3.30;;
3647;SDS011;1840;48.892;15.312;2023-10-09T04:07:18;9.47;;;4.47;;
3647;SDS011;1840;48.892;15.312;2023-10-09T04:09:47;9.93;;;4.20;;
3647;SDS011;1840;48.892;15.312;2023-10-09T04:12:20;6.20;;;3.57;;
3647;SDS011;1840;48.892;15.312;2023-10-09T04:14:52;11.30;;;4.43;;
3647;SDS011;1840;48.892;15.312;2023-10-09T04:17:24;6.97;;;3.80;;
3647;SDS011;1840;48.892;15.312;2023-10-09T04:20:02;9.40;;;4.30;;
3647;SDS011;1840;48.892;15.312;2023-10-09T04:22:49;9.43;;;4.33;;
3647;SDS011;1840;48.892;15.312;2023-10-09T04:25:18;7.43;;;4.20;;
3647;SDS011;1840;48.892;15.312;2023-10-09T04:27:54;14.23;;;4.37;;
3647;SDS011;1840;48.892;15.312;2023-10-09T04:30:35;9.63;;;3.43;;
3647;SDS011;1840;48.892;15.312;2023-10-09T04:33:07;5.67;;;3.67;;
3647;SDS011;1840;48.892;15.312;2023-10-09T04:35:55;9.73;;;4.30;;
3647;SDS011;1840;48.892;15.312;2023-10-09T04:38:43;8.40;;;3.83;;
3647;SDS011;1840;48.892;15.312;2023-10-09T04:41:22;13.63;;;4.67;;
3647;SDS011;1840;48.892;15.312;2023-10-09T04:44:01;12.13;;;4.73;;
3647;SDS011;1840;48.892;15.312;2023-10-09T04:46:45;9.67;;;4.43;;
3647;SDS011;1840;48.892;15.312;2023-10-09T04:49:45;6.30;;;3.70;;
3647;SDS011;1840;48.892;15.312;2023-10-09T04:52:28;12.70;;;3.73;;
3647;SDS011;1840;48.892;15.312;2023-10-09T04:55:12;10.17;;;4.23;;
3647;SDS011;1840;48.892;15.312;2023-10-09T04:57:45;10.00;;;5.00;;
3647;SDS011;1840;48.892;15.312;2023-10-09T05:00:29;9.50;;;4.37;;
3647;SDS011;1840;48.892;15.312;2023-10-09T05:03:28;16.17;;;4.60;;
3647;SDS011;1840;48.892;15.312;2023-10-09T05:06:10;9.37;;;4.43;;
3647;SDS011;1840;48.892;15.312;2023-10-09T05:08:58;17.00;;;6.00;;
3647;SDS011;1840;48.892;15.312;2023-10-09T05:11:35;8.63;;;4.17;;
3647;SDS011;1840;48.892;15.312;2023-10-09T05:14:17;11.73;;;4.53;;
3647;SDS011;1840;48.892;15.312;2023-10-09T05:16:54;13.87;;;6.10;;
3647;SDS011;1840;48.892;15.312;2023-10-09T05:19:22;12.50;;;4.20;;
3647;SDS011;1840;48.892;15.312;2023-10-09T05:22:00;7.60;;;4.57;;
3647;SDS011;1840;48.892;15.312;2023-10-09T05:24:34;8.00;;;4.50;;
3647;SDS011;1840;48.892;15.312;2023-10-09T05:27:11;24.23;;;5.47;;
3647;SDS011;1840;48.892;15.312;2023-10-09T05:29:44;11.50;;;4.77;;
3647;SDS011;1840;48.892;15.312;2023-10-09T05:32:33;16.23;;;4.93;;
3647;SDS011;1840;48.892;15.312;2023-10-09T05:35:14;6.80;;;3.80;;
3647;SDS011;1840;48.892;15.312;2023-10-09T05:37:56;10.20;;;4.73;;
3647;SDS011;1840;48.892;15.312;2023-10-09T05:40:41;12.80;;;5.10;;
3647;SDS011;1840;48.892;15.312;2023-10-09T05:43:12;7.30;;;4.73;;
3647;SDS011;1840;48.892;15.312;2023-10-09T05:46:00;8.10;;;4.70;;
3647;SDS011;1840;48.892;15.312;2023-10-09T05:48:43;9.10;;;5.10;;
3647;SDS011;1840;48.892;15.312;2023-10-09T05:51:35;10.37;;;5.07;;
3647;SDS011;1840;48.892;15.312;2023-10-09T05:54:08;12.17;;;5.10;;
3647;SDS011;1840;48.892;15.312;2023-10-09T05:56:50;13.80;;;5.37;;
3647;SDS011;1840;48.892;15.312;2023-10-09T05:59:35;13.10;;;6.10;;
3647;SDS011;1840;48.892;15.312;2023-10-09T06:02:21;16.80;;;7.20;;
3647;SDS011;1840;48.892;15.312;2023-10-09T06:05:29;11.10;;;7.43;;
3647;SDS011;1840;48.892;15.312;2023-10-09T06:08:18;30.27;;;9.23;;
3647;SDS011;1840;48.892;15.312;2023-10-09T06:10:51;14.50;;;8.67;;
3647;SDS011;1840;48.892;15.312;2023-10-09T06:13:32;14.10;;;8.00;;
3647;SDS011;1840;48.892;15.312;2023-10-09T06:16:12;17.73;;;8.03;;
3647;SDS011;1840;48.892;15.312;2023-10-09T06:19:08;12.37;;;8.00;;
3647;SDS011;1840;48.892;15.312;2023-10-09T06:21:41;14.50;;;6.80;;
3647;SDS011;1840;48.892;15.312;2023-10-09T06:24:26;12.27;;;6.30;;
3647;SDS011;1840;48.892;15.312;2023-10-09T06:27:08;8.57;;;5.13;;
3647;SDS011;1840;48.892;15.312;2023-10-09T06:30:05;9.93;;;6.03;;
3647;SDS011;1840;48.892;15.312;2023-10-09T06:32:53;7.93;;;5.50;;
3647;SDS011;1840;48.892;15.312;2023-10-09T06:35:35;8.70;;;5.70;;
3647;SDS011;1840;48.892;15.312;2023-10-09T06:38:04;8.80;;;5.20;;
3647;SDS011;1840;48.892;15.312;2023-10-09T06:40:48;7.03;;;5.13;;
3647;SDS011;1840;48.892;15.312;2023-10-09T06:43:43;8.23;;;5.53;;
3647;SDS011;1840;48.892;15.312;2023-10-09T06:46:14;7.90;;;5.03;;
3647;SDS011;1840;48.892;15.312;2023-10-09T06:49:09;13.33;;;5.30;;
3647;SDS011;1840;48.892;15.312;2023-10-09T06:51:55;15.87;;;5.57;;
3647;SDS011;1840;48.892;15.312;2023-10-09T06:54:26;11.30;;;5.63;;
3647;SDS011;1840;48.892;15.312;2023-10-09T06:57:03;10.10;;;4.90;;
3647;SDS011;1840;48.892;15.312;2023-10-09T06:59:40;13.40;;;5.93;;
3647;SDS011;1840;48.892;15.312;2023-10-09T07:02:25;14.87;;;5.70;;
3647;SDS011;1840;48.892;15.312;2023-10-09T07:04:53;9.80;;;5.70;;
3647;SDS011;1840;48.892;15.312;2023-10-09T07:07:39;10.53;;;5.83;;
3647;SDS011;1840;48.892;15.312;2023-10-09T07:10:19;8.50;;;4.87;;
3647;SDS011;1840;48.892;15.312;2023-10-09T07:12:56;9.00;;;4.63;;
3647;SDS011;1840;48.892;15.312;2023-10-09T07:15:24;6.53;;;4.80;;
3647;SDS011;1840;48.892;15.312;2023-10-09T07:18:10;14.23;;;5.00;;
3647;SDS011;1840;48.892;15.312;2023-10-09T07:20:50;21.17;;;6.10;;
3647;SDS011;1840;48.892;15.312;2023-10-09T07:23:28;8.73;;;5.33;;
3647;SDS011;1840;48.892;15.312;2023-10-09T07:26:04;9.40;;;5.47;;
3647;SDS011;1840;48.892;15.312;2023-10-09T07:28:52;9.70;;;6.03;;
3647;SDS011;1840;48.892;15.312;2023-10-09T07:31:27;10.20;;;5.60;;
3647;SDS011;1840;48.892;15.312;2023-10-09T07:34:06;9.37;;;5.33;;
3647;SDS011;1840;48.892;15.312;2023-10-09T07:36:57;15.60;;;5.33;;
3647;SDS011;1840;48.892;15.312;2023-10-09T07:39:30;10.13;;;6.00;;
3647;SDS011;1840;48.892;15.312;2023-10-09T07:42:07;14.07;;;5.40;;
3647;SDS011;1840;48.892;15.312;2023-10-09T07:44:53;10.90;;;5.43;;
3647;SDS011;1840;48.892;15.312;2023-10-09T07:47:24;9.47;;;6.00;;
3647;SDS011;1840;48.892;15.312;2023-10-09T07:50:12;9.47;;;5.53;;
3647;SDS011;1840;48.892;15.312;2023-10-09T07:52:47;10.63;;;6.27;;
3647;SDS011;1840;48.892;15.312;2023-10-09T07:55:16;16.10;;;5.00;;
3647;SDS011;1840;48.892;15.312;2023-10-09T07:57:57;10.77;;;5.53;;
3647;SDS011;1840;48.892;15.312;2023-10-09T08:00:37;11.77;;;5.50;;
3647;SDS011;1840;48.892;15.312;2023-10-09T08:03:26;12.07;;;4.77;;
3647;SDS011;1840;48.892;15.312;2023-10-09T08:05:59;9.60;;;5.30;;
3647;SDS011;1840;48.892;15.312;2023-10-09T08:08:56;10.27;;;5.17;;
3647;SDS011;1840;48.892;15.312;2023-10-09T08:11:47;16.60;;;5.67;;
3647;SDS011;1840;48.892;15.312;2023-10-09T08:14:42;10.40;;;5.10;;
3647;SDS011;1840;48.892;15.312;2023-10-09T08:17:09;13.87;;;6.10;;
3647;SDS011;1840;48.892;15.312;2023-10-09T08:19:47;13.60;;;5.43;;
3647;SDS011;1840;48.892;15.312;2023-10-09T08:22:23;9.40;;;5.37;;
3647;SDS011;1840;48.892;15.312;2023-10-09T08:25:16;23.63;;;5.27;;
3647;SDS011;1840;48.892;15.312;2023-10-09T08:27:54;15.50;;;6.70;;
3647;SDS011;1840;48.892;15.312;2023-10-09T08:30:27;21.57;;;6.73;;
3647;SDS011;1840;48.892;15.312;2023-10-09T08:33:10;11.90;;;5.50;;
3647;SDS011;1840;48.892;15.312;2023-10-09T08:35:59;7.77;;;5.33;;
3647;SDS011;1840;48.892;15.312;2023-10-09T08:38:32;18.17;;;6.47;;
3647;SDS011;1840;48.892;15.312;2023-10-09T08:41:07;11.13;;;5.47;;
3647;SDS011;1840;48.892;15.312;2023-10-09T08:43:47;12.27;;;5.40;;
3647;SDS011;1840;48.892;15.312;2023-10-09T08:46:20;11.53;;;5.73;;
3647;SDS011;1840;48.892;15.312;2023-10-09T08:48:54;20.60;;;5.40;;
3647;SDS011;1840;48.892;15.312;2023-10-09T08:51:23;14.07;;;5.30;;
3647;SDS011;1840;48.892;15.312;2023-10-09T08:53:52;21.80;;;13.30;;
3647;SDS011;1840;48.892;15.312;2023-10-09T08:56:21;14.13;;;7.20;;
3647;SDS011;1840;48.892;15.312;2023-10-09T08:58:50;16.13;;;6.87;;
3647;SDS011;1840;48.892;15.312;2023-10-09T09:01:21;12.87;;;5.90;;
3647;SDS011;1840;48.892;15.312;2023-10-09T09:03:52;15.70;;;6.30;;
3647;SDS011;1840;48.892;15.312;2023-10-09T09:06:22;12.40;;;6.20;;
3647;SDS011;1840;48.892;15.312;2023-10-09T09:08:50;9.80;;;5.53;;
3647;SDS011;1840;48.892;15.312;2023-10-09T09:11:21;14.23;;;6.30;;
3647;SDS011;1840;48.892;15.312;2023-10-09T09:13:59;18.83;;;8.30;;
3647;SDS011;1840;48.892;15.312;2023-10-09T09:16:33;21.03;;;8.57;;
3647;SDS011;1840;48.892;15.312;2023-10-09T09:19:04;16.50;;;10.23;;
3647;SDS011;1840;48.892;15.312;2023-10-09T09:21:47;26.13;;;12.03;;
3647;SDS011;1840;48.892;15.312;2023-10-09T09:24:21;20.87;;;11.30;;
3647;SDS011;1840;48.892;15.312;2023-10-09T09:27:03;29.53;;;14.77;;
3647;SDS011;1840;48.892;15.312;2023-10-09T09:29:40;39.97;;;16.30;;
3647;SDS011;1840;48.892;15.312;2023-10-09T09:32:27;25.00;;;11.10;;
3647;SDS011;1840;48.892;15.312;2023-10-09T09:35:02;22.30;;;9.23;;
3647;SDS011;1840;48.892;15.312;2023-10-09T09:37:32;18.03;;;8.27;;
3647;SDS011;1840;48.892;15.312;2023-10-09T09:40:17;16.50;;;6.20;;
3647;SDS011;1840;48.892;15.312;2023-10-09T09:43:00;23.00;;;7.20;;
3647;SDS011;1840;48.892;15.312;2023-10-09T09:45:33;22.77;;;6.00;;
3647;SDS011;1840;48.892;15.312;2023-10-09T09:48:04;15.67;;;7.20;;
3647;SDS011;1840;48.892;15.312;2023-10-09T09:50:33;16.23;;;7.53;;
3647;SDS011;1840;48.892;15.312;2023-10-09T09:53:09;16.63;;;6.30;;
3647;SDS011;1840;48.892;15.312;2023-10-09T09:55:44;16.10;;;7.70;;
3647;SDS011;1840;48.892;15.312;2023-10-09T09:58:18;17.27;;;8.03;;
3647;SDS011;1840;48.892;15.312;2023-10-09T10:00:50;21.70;;;6.87;;
3647;SDS011;1840;48.892;15.312;2023-10-09T10:03:24;18.57;;;7.03;;
3647;SDS011;1840;48.892;15.312;2023-10-09T10:05:56;18.80;;;8.37;;
3647;SDS011;1840;48.892;15.312;2023-10-09T10:08:24;15.00;;;7.13;;
3647;SDS011;1840;48.892;15.312;2023-10-09T10:10:59;24.10;;;8.87;;
3647;SDS011;1840;48.892;15.312;2023-10-09T10:16:26;24.27;;;7.97;;
3647;SDS011;1840;48.892;15.312;2023-10-09T10:19:03;18.50;;;8.63;;
3647;SDS011;1840;48.892;15.312;2023-10-09T10:21:48;16.17;;;7.37;;
3647;SDS011;1840;48.892;15.312;2023-10-09T10:27:25;15.33;;;7.60;;
3647;SDS011;1840;48.892;15.312;2023-10-09T10:33:00;13.27;;;7.20;;
3647;SDS011;1840;48.892;15.312;2023-10-09T10:35:38;14.33;;;6.40;;
3647;SDS011;1840;48.892;15.312;2023-10-09T10:38:26;15.30;;;8.00;;
3647;SDS011;1840;48.892;15.312;2023-10-09T10:41:12;18.63;;;8.00;;
3647;SDS011;1840;48.892;15.312;2023-10-09T10:43:43;18.13;;;7.37;;
3647;SDS011;1840;48.892;15.312;2023-10-09T10:46:47;15.73;;;7.60;;
3647;SDS011;1840;48.892;15.312;2023-10-09T10:49:18;22.27;;;7.70;;
3647;SDS011;1840;48.892;15.312;2023-10-09T10:51:54;16.33;;;7.97;;
3647;SDS011;1840;48.892;15.312;2023-10-09T10:54:41;19.40;;;7.63;;
3647;SDS011;1840;48.892;15.312;2023-10-09T10:57:35;16.57;;;7.13;;
3647;SDS011;1840;48.892;15.312;2023-10-09T11:00:20;14.93;;;6.10;;
3647;SDS011;1840;48.892;15.312;2023-10-09T11:03:06;15.80;;;6.40;;
3647;SDS011;1840;48.892;15.312;2023-10-09T11:05:44;12.63;;;6.70;;
3647;SDS011;1840;48.892;15.312;2023-10-09T11:08:23;11.30;;;6.43;;
3647;SDS011;1840;48.892;15.312;2023-10-09T11:13:43;15.87;;;7.30;;
3647;SDS011;1840;48.892;15.312;2023-10-09T11:16:24;13.63;;;7.30;;
3647;SDS011;1840;48.892;15.312;2023-10-09T11:19:10;18.30;;;7.73;;
3647;SDS011;1840;48.892;15.312;2023-10-09T11:21:56;14.50;;;7.37;;
3647;SDS011;1840;48.892;15.312;2023-10-09T11:24:49;19.90;;;8.10;;
3647;SDS011;1840;48.892;15.312;2023-10-09T11:27:39;19.93;;;8.03;;
3647;SDS011;1840;48.892;15.312;2023-10-09T11:30:17;17.33;;;7.60;;
3647;SDS011;1840;48.892;15.312;2023-10-09T11:33:03;12.63;;;7.83;;
3647;SDS011;1840;48.892;15.312;2023-10-09T11:35:34;14.83;;;7.47;;
3647;SDS011;1840;48.892;15.312;2023-10-09T11:38:01;13.87;;;8.00;;
3647;SDS011;1840;48.892;15.312;2023-10-09T11:40:49;14.97;;;7.47;;
3647;SDS011;1840;48.892;15.312;2023-10-09T11:43:47;14.57;;;7.70;;
3647;SDS011;1840;48.892;15.312;2023-10-09T11:46:18;16.07;;;8.13;;
3647;SDS011;1840;48.892;15.312;2023-10-09T11:49:05;16.23;;;7.37;;
3647;SDS011;1840;48.892;15.312;2023-10-09T11:51:52;22.67;;;8.87;;
3647;SDS011;1840;48.892;15.312;2023-10-09T11:54:38;14.17;;;7.13;;
3647;SDS011;1840;48.892;15.312;2023-10-09T11:57:07;15.73;;;8.20;;
3647;SDS011;1840;48.892;15.312;2023-10-09T11:59:34;17.20;;;8.73;;
3647;SDS011;1840;48.892;15.312;2023-10-09T12:02:05;20.43;;;8.07;;
3647;SDS011;1840;48.892;15.312;2023-10-09T12:04:38;14.53;;;7.53;;
3647;SDS011;1840;48.892;15.312;2023-10-09T12:07:11;18.00;;;7.27;;
3647;SDS011;1840;48.892;15.312;2023-10-09T12:09:40;17.77;;;8.20;;
3647;SDS011;1840;48.892;15.312;2023-10-09T12:12:09;19.70;;;7.77;;
3647;SDS011;1840;48.892;15.312;2023-10-09T12:14:37;11.20;;;6.23;;
3647;SDS011;1840;48.892;15.312;2023-10-09T12:17:06;15.13;;;7.70;;
3647;SDS011;1840;48.892;15.312;2023-10-09T12:19:36;16.20;;;7.40;;
3647;SDS011;1840;48.892;15.312;2023-10-09T12:22:06;16.17;;;8.60;;
3647;SDS011;1840;48.892;15.312;2023-10-09T12:24:37;13.40;;;7.13;;
3647;SDS011;1840;48.892;15.312;2023-10-09T12:27:10;17.97;;;7.20;;
3647;SDS011;1840;48.892;15.312;2023-10-09T12:29:39;14.23;;;6.90;;
3647;SDS011;1840;48.892;15.312;2023-10-09T12:32:14;18.43;;;9.13;;
3647;SDS011;1840;48.892;15.312;2023-10-09T12:34:45;18.53;;;6.77;;
3647;SDS011;1840;48.892;15.312;2023-10-09T12:37:17;15.60;;;8.20;;
3647;SDS011;1840;48.892;15.312;2023-10-09T12:39:47;17.57;;;8.80;;
3647;SDS011;1840;48.892;15.312;2023-10-09T12:42:17;15.83;;;7.83;;
3647;SDS011;1840;48.892;15.312;2023-10-09T12:44:46;15.63;;;7.53;;
3647;SDS011;1840;48.892;15.312;2023-10-09T12:47:16;17.17;;;8.00;;
3647;SDS011;1840;48.892;15.312;2023-10-09T12:49:46;17.67;;;8.63;;
3647;SDS011;1840;48.892;15.312;2023-10-09T12:52:15;18.50;;;7.37;;
3647;SDS011;1840;48.892;15.312;2023-10-09T12:54:44;16.17;;;8.00;;
3647;SDS011;1840;48.892;15.312;2023-10-09T12:57:13;19.00;;;8.80;;
3647;SDS011;1840;48.892;15.312;2023-10-09T12:59:43;18.43;;;8.97;;
3647;SDS011;1840;48.892;15.312;2023-10-09T13:02:12;17.67;;;7.83;;
3647;SDS011;1840;48.892;15.312;2023-10-09T13:04:55;33.70;;;7.90;;
3647;SDS011;1840;48.892;15.312;2023-10-09T13:07:24;19.40;;;8.60;;
3647;SDS011;1840;48.892;15.312;2023-10-09T13:09:52;21.43;;;8.53;;
3647;SDS011;1840;48.892;15.312;2023-10-09T13:12:34;16.70;;;8.40;;
3647;SDS011;1840;48.892;15.312;2023-10-09T13:15:07;19.03;;;8.87;;
3647;SDS011;1840;48.892;15.312;2023-10-09T13:17:36;17.00;;;8.07;;
3647;SDS011;1840;48.892;15.312;2023-10-09T13:20:05;17.30;;;8.00;;
3647;SDS011;1840;48.892;15.312;2023-10-09T13:22:40;16.33;;;7.50;;
3647;SDS011;1840;48.892;15.312;2023-10-09T13:25:09;16.83;;;7.20;;
3647;SDS011;1840;48.892;15.312;2023-10-09T13:27:56;17.00;;;7.53;;
3647;SDS011;1840;48.892;15.312;2023-10-09T13:30:31;17.50;;;7.87;;
3647;SDS011;1840;48.892;15.312;2023-10-09T13:33:06;20.63;;;7.63;;
3647;SDS011;1840;48.892;15.312;2023-10-09T13:35:43;24.80;;;8.67;;
3647;SDS011;1840;48.892;15.312;2023-10-09T13:38:17;21.83;;;9.07;;
3647;SDS011;1840;48.892;15.312;2023-10-09T13:40:45;17.43;;;8.03;;
3647;SDS011;1840;48.892;15.312;2023-10-09T13:43:13;18.53;;;8.10;;
3647;SDS011;1840;48.892;15.312;2023-10-09T13:45:45;16.20;;;8.50;;
3647;SDS011;1840;48.892;15.312;2023-10-09T13:48:17;19.07;;;7.90;;
3647;SDS011;1840;48.892;15.312;2023-10-09T13:50:47;15.27;;;7.97;;
3647;SDS011;1840;48.892;15.312;2023-10-09T13:53:16;17.13;;;7.20;;
3647;SDS011;1840;48.892;15.312;2023-10-09T13:55:44;15.70;;;5.83;;
3647;SDS011;1840;48.892;15.312;2023-10-09T13:58:13;18.67;;;8.53;;
3647;SDS011;1840;48.892;15.312;2023-10-09T14:00:48;16.17;;;7.53;;
3647;SDS011;1840;48.892;15.312;2023-10-09T14:03:20;14.67;;;7.63;;
3647;SDS011;1840;48.892;15.312;2023-10-09T14:05:50;13.97;;;6.97;;
3647;SDS011;1840;48.892;15.312;2023-10-09T14:08:23;15.93;;;7.63;;
3647;SDS011;1840;48.892;15.312;2023-10-09T14:10:52;19.93;;;8.23;;
3647;SDS011;1840;48.892;15.312;2023-10-09T14:13:21;22.63;;;8.67;;
3647;SDS011;1840;48.892;15.312;2023-10-09T14:15:57;18.37;;;7.70;;
3647;SDS011;1840;48.892;15.312;2023-10-09T14:18:29;18.10;;;7.50;;
3647;SDS011;1840;48.892;15.312;2023-10-09T14:21:00;16.70;;;7.17;;
3647;SDS011;1840;48.892;15.312;2023-10-09T14:23:31;21.57;;;8.30;;
3647;SDS011;1840;48.892;15.312;2023-10-09T14:26:01;14.20;;;7.23;;
3647;SDS011;1840;48.892;15.312;2023-10-09T14:28:29;20.10;;;7.60;;
3647;SDS011;1840;48.892;15.312;2023-10-09T14:30:58;17.37;;;7.90;;
3647;SDS011;1840;48.892;15.312;2023-10-09T14:33:31;20.30;;;8.87;;
3647;SDS011;1840;48.892;15.312;2023-10-09T14:36:03;24.03;;;11.80;;
3647;SDS011;1840;48.892;15.312;2023-10-09T14:38:34;15.70;;;8.60;;
3647;SDS011;1840;48.892;15.312;2023-10-09T14:41:05;18.20;;;7.53;;
3647;SDS011;1840;48.892;15.312;2023-10-09T14:43:38;17.00;;;9.07;;
3647;SDS011;1840;48.892;15.312;2023-10-09T14:46:12;21.37;;;11.27;;
3647;SDS011;1840;48.892;15.312;2023-10-09T14:48:41;19.17;;;9.40;;
3647;SDS011;1840;48.892;15.312;2023-10-09T14:51:13;24.80;;;9.80;;
3647;SDS011;1840;48.892;15.312;2023-10-09T14:53:41;21.80;;;9.20;;
3647;SDS011;1840;48.892;15.312;2023-10-09T14:56:10;22.27;;;12.00;;
3647;SDS011;1840;48.892;15.312;2023-10-09T14:58:41;24.50;;;12.50;;
3647;SDS011;1840;48.892;15.312;2023-10-09T15:01:13;24.60;;;11.50;;
3647;SDS011;1840;48.892;15.312;2023-10-09T15:03:45;19.70;;;10.00;;
3647;SDS011;1840;48.892;15.312;2023-10-09T15:06:15;19.83;;;9.70;;
3647;SDS011;1840;48.892;15.312;2023-10-09T15:08:45;31.20;;;10.93;;
3647;SDS011;1840;48.892;15.312;2023-10-09T15:11:15;30.17;;;12.57;;
3647;SDS011;1840;48.892;15.312;2023-10-09T15:13:44;27.07;;;11.27;;
3647;SDS011;1840;48.892;15.312;2023-10-09T15:16:15;26.43;;;9.33;;
3647;SDS011;1840;48.892;15.312;2023-10-09T15:18:44;28.13;;;9.73;;
3647;SDS011;1840;48.892;15.312;2023-10-09T15:21:13;21.07;;;9.50;;
3647;SDS011;1840;48.892;15.312;2023-10-09T15:23:42;23.37;;;9.03;;
3647;SDS011;1840;48.892;15.312;2023-10-09T15:26:10;17.10;;;8.77;;
3647;SDS011;1840;48.892;15.312;2023-10-09T15:28:42;17.80;;;9.70;;
3647;SDS011;1840;48.892;15.312;2023-10-09T15:31:11;20.13;;;8.73;;
3647;SDS011;1840;48.892;15.312;2023-10-09T15:33:41;14.37;;;8.50;;
3647;SDS011;1840;48.892;15.312;2023-10-09T15:36:10;16.33;;;8.00;;
3647;SDS011;1840;48.892;15.312;2023-10-09T15:38:39;17.30;;;8.33;;
3647;SDS011;1840;48.892;15.312;2023-10-09T15:41:07;18.40;;;9.10;;
3647;SDS011;1840;48.892;15.312;2023-10-09T15:43:36;21.47;;;9.23;;
3647;SDS011;1840;48.892;15.312;2023-10-09T15:46:05;19.03;;;9.43;;
3647;SDS011;1840;48.892;15.312;2023-10-09T15:48:43;21.33;;;12.17;;
3647;SDS011;1840;48.892;15.312;2023-10-09T15:51:12;15.83;;;10.10;;